Time;durP1;ratioP1;P1;durP2;ratioP2;P2;SDS_P1;SDS_P2;PMS_P1;PMS_P2;Temp;Humidity;BMP_temperature;BMP_pressure;BME280_temperature;BME280_humidity;BME280_pressure;Samples;Min_cycle;Max_cycle;Signal;HPM_P1;HPM_P2
2022/05/07 00:01:59;;;;;;;;;6.67;6.67;;;;;19.06;82.13;102184.38;5040943;28;65670;-73
2022/05/07 00:04:24;;;;;;;;;9.67;6.67;;;;;18.98;82.99;102180.84;5059527;28;45248;-71
2022/05/07 00:06:50;;;;;;;;;9.00;7.67;;;;;18.92;84.12;102180.84;5059979;28;45509;-71
2022/05/07 00:09:15;;;;;;;;;10.00;7.33;;;;;18.90;83.54;102193.31;5059508;28;52435;-71
2022/05/07 00:11:41;;;;;;;;;9.33;8.67;;;;;18.83;83.72;102187.09;5049702;28;55836;-71
2022/05/07 00:14:06;;;;;;;;;12.00;9.00;;;;;18.77;84.21;102183.53;5058733;28;45315;-72
2022/05/07 00:19:15;;;;;;;;;10.00;8.00;;;;;18.67;84.31;102173.72;5059789;28;45520;-71
2022/05/07 00:21:40;;;;;;;;;12.33;10.00;;;;;18.67;84.58;102182.63;5059371;28;46309;-71
2022/05/07 00:24:06;;;;;;;;;9.33;8.33;;;;;18.63;86.25;102179.94;5048687;28;59043;-71
2022/05/07 00:26:32;;;;;;;;;10.33;9.33;;;;;18.62;85.15;102178.16;5059303;28;45515;-72
2022/05/07 00:28:57;;;;;;;;;11.00;10.00;;;;;18.59;85.44;102179.09;5058211;28;52466;-72
2022/05/07 00:31:22;;;;;;;;;13.67;11.00;;;;;18.57;85.65;102179.06;5040955;28;46197;-71
2022/05/07 00:33:48;;;;;;;;;10.00;9.00;;;;;18.55;85.61;102180.84;5056841;28;60418;-71
2022/05/07 00:36:13;;;;;;;;;11.67;10.00;;;;;18.50;86.25;102165.69;5059120;28;54289;-71
2022/05/07 00:38:38;;;;;;;;;13.33;10.67;;;;;18.50;86.52;102168.38;5058883;28;52355;-71
2022/05/07 00:41:04;;;;;;;;;10.67;9.67;;;;;18.48;86.99;102173.75;5058847;28;58947;-71
2022/05/07 00:43:36;;;;;;;;;14.33;11.00;;;;;18.47;86.90;102171.03;5058241;28;45363;-71
2022/05/07 00:46:02;;;;;;;;;12.33;9.67;;;;;18.42;87.73;102173.72;5059271;28;45358;-72
2022/05/07 00:48:28;;;;;;;;;12.00;10.67;;;;;18.38;87.33;102177.31;5057792;28;45455;-72
2022/05/07 00:53:38;;;;;;;;;12.00;9.33;;;;;18.26;87.47;102161.22;5058248;28;45409;-72
2022/05/07 00:56:04;;;;;;;;;17.00;13.00;;;;;18.23;89.31;102163.91;5059195;28;45367;-72
2022/05/07 00:58:30;;;;;;;;;11.00;10.00;;;;;18.16;87.95;102167.44;5058238;28;45386;-72
2022/05/07 01:00:55;;;;;;;;;12.00;9.00;;;;;18.11;88.20;102148.75;5058760;28;46517;-71
2022/05/07 01:03:21;;;;;;;;;14.33;10.00;;;;;18.10;88.81;102159.44;5057178;28;63787;-72
2022/05/07 01:05:46;;;;;;;;;12.00;10.33;;;;;18.02;89.43;102152.31;5059051;28;45277;-71
2022/05/07 01:08:12;;;;;;;;;10.00;10.00;;;;;17.95;89.39;102149.59;5058374;28;54417;-72
2022/05/07 01:10:38;;;;;;;;;12.67;11.67;;;;;17.95;90.84;102152.28;5045299;28;46482;-71
2022/05/07 01:13:04;;;;;;;;;12.33;12.33;;;;;17.90;91.65;102151.41;5057084;28;45616;-72
2022/05/07 01:15:30;;;;;;;;;13.00;11.33;;;;;17.83;91.34;102150.47;5058667;28;45416;-70
2022/05/07 01:17:55;;;;;;;;;11.67;10.33;;;;;17.77;90.81;102148.69;5059105;28;45530;-72
2022/05/07 01:20:21;;;;;;;;;10.67;10.67;;;;;17.76;92.02;102152.25;5058298;28;51156;-71
2022/05/07 01:22:47;;;;;;;;;14.33;11.67;;;;;17.68;91.46;102140.59;5054891;28;45315;-72
2022/05/07 01:25:12;;;;;;;;;16.00;13.33;;;;;17.71;91.36;102148.66;5040914;28;45340;-72
2022/05/07 01:27:37;;;;;;;;;15.33;14.33;;;;;17.68;92.11;102145.94;5058590;28;45484;-72
2022/05/07 01:30:04;;;;;;;;;12.33;12.00;;;;;17.71;94.39;102151.31;5058048;28;52280;-73
2022/05/07 01:32:29;;;;;;;;;12.00;12.00;;;;;17.67;92.54;102149.50;5057625;28;45543;-71
2022/05/07 01:34:54;;;;;;;;;16.33;13.67;;;;;17.65;94.09;102153.09;5058385;28;45497;-73
2022/05/07 01:37:20;;;;;;;;;17.67;15.67;;;;;17.61;92.67;102141.50;5057462;28;45390;-72
2022/05/07 01:39:45;;;;;;;;;14.33;13.00;;;;;17.51;92.72;102137.91;5058548;28;46049;-71
2022/05/07 01:42:11;;;;;;;;;13.00;12.00;;;;;17.51;94.17;102143.22;5058367;28;45232;-71
2022/05/07 01:44:36;;;;;;;;;16.00;11.33;;;;;17.51;93.71;102147.69;5057483;28;45487;-71
2022/05/07 01:49:45;;;;;;;;;13.67;12.00;;;;;17.51;93.88;102153.03;5052225;28;45865;-72
2022/05/07 01:52:11;;;;;;;;;11.00;10.00;;;;;17.46;94.21;102134.31;5046487;28;50575;-72
2022/05/07 01:54:36;;;;;;;;;11.33;11.00;;;;;17.49;94.08;102142.34;5057403;28;46026;-71
2022/05/07 01:57:02;;;;;;;;;14.00;13.67;;;;;17.50;94.41;102143.25;5058468;28;45411;-72
2022/05/07 01:59:27;;;;;;;;;11.33;11.33;;;;;17.49;94.50;102139.69;5057802;28;46394;-70
2022/05/07 02:01:52;;;;;;;;;15.67;13.00;;;;;17.50;95.55;102140.56;5040195;28;45258;-72
2022/05/07 02:04:18;;;;;;;;;13.00;11.67;;;;;17.48;96.31;102140.56;5056923;28;56229;-72
2022/05/07 02:06:43;;;;;;;;;16.00;11.00;;;;;17.50;95.34;102143.25;5057353;28;57543;-73
2022/05/07 02:09:09;;;;;;;;;14.33;11.00;;;;;17.46;95.46;102138.75;5056969;28;58253;-71
2022/05/07 02:11:35;;;;;;;;;14.67;13.00;;;;;17.49;95.99;102144.13;5053158;28;45469;-72
2022/05/07 02:14:00;;;;;;;;;13.00;11.67;;;;;17.46;95.63;102139.66;5050919;28;45403;-71
2022/05/07 02:16:25;;;;;;;;;14.33;12.67;;;;;17.48;95.52;102142.34;5057221;28;51241;-73
2022/05/07 02:18:51;;;;;;;;;13.67;11.67;;;;;17.49;96.07;102144.13;5057151;28;58242;-72
2022/05/07 02:21:16;;;;;;;;;13.33;12.67;;;;;17.41;97.69;102136.06;5057525;28;45394;-71
2022/05/07 02:23:42;;;;;;;;;15.00;13.67;;;;;17.40;97.04;102144.97;5051804;28;45452;-71
2022/05/07 02:26:07;;;;;;;;;13.33;11.00;;;;;17.32;96.42;102130.72;5041076;28;54046;-72
2022/05/07 02:28:32;;;;;;;;;14.00;11.33;;;;;17.38;97.79;102146.75;5077418;28;61118;-72
2022/05/07 02:30:58;;;;;;;;;11.67;10.67;;;;;17.35;97.16;102143.19;5057279;28;57527;-72
2022/05/07 02:33:23;;;;;;;;;10.67;10.67;;;;;17.32;98.61;102145.84;5070019;28;45575;-70
2022/05/07 02:35:49;;;;;;;;;14.67;13.67;;;;;17.28;99.52;102147.59;5063879;28;45309;-71
2022/05/07 02:38:14;;;;;;;;;13.00;13.00;;;;;17.22;99.59;102145.81;5064162;28;45438;-71
2022/05/07 02:43:24;;;;;;;;;13.00;13.00;;;;;17.09;98.30;102138.59;5059350;28;45445;-72
2022/05/07 02:45:49;;;;;;;;;12.67;11.33;;;;;17.11;98.43;102144.88;5068878;28;45257;-72
2022/05/07 02:48:15;;;;;;;;;10.67;7.33;;;;;17.06;99.12;102145.72;5043321;28;47532;-71
2022/05/07 02:50:40;;;;;;;;;13.00;12.67;;;;;17.06;98.70;102141.28;5067384;28;45298;-71
2022/05/07 02:53:05;;;;;;;;;13.00;13.00;;;;;17.03;99.14;102141.25;5061688;28;48981;-71
2022/05/07 02:55:31;;;;;;;;;15.00;12.00;;;;;16.99;100.00;102136.78;5067071;28;49473;-71
2022/05/07 02:57:56;;;;;;;;;19.00;12.67;;;;;16.99;100.00;102147.44;5056465;28;62072;-71
2022/05/07 03:00:21;;;;;;;;;12.33;12.33;;;;;16.92;100.00;102130.50;5056399;28;61390;-72
2022/05/07 03:02:47;;;;;;;;;13.00;11.00;;;;;16.93;100.00;102142.97;5057392;28;45300;-71
2022/05/07 03:05:12;;;;;;;;;17.00;13.67;;;;;16.93;100.00;102142.97;5069740;28;45581;-71
2022/05/07 03:07:37;;;;;;;;;13.67;12.67;;;;;16.88;100.00;102127.81;5056897;28;45726;-72
2022/05/07 03:10:03;;;;;;;;;14.75;13.75;;;;;16.87;100.00;102129.59;5064372;28;45468;-71
2022/05/07 03:12:29;;;;;;;;;15.33;13.67;;;;;16.91;100.00;102138.53;5074806;28;45373;-71
2022/05/07 03:14:54;;;;;;;;;14.33;13.00;;;;;16.85;100.00;102139.38;5063317;28;45306;-71
2022/05/07 03:17:19;;;;;;;;;21.00;13.33;;;;;16.87;100.00;102134.03;5056043;28;62149;-71
2022/05/07 03:19:45;;;;;;;;;12.67;12.67;;;;;16.79;100.00;102123.34;5056880;28;45325;-72
2022/05/07 03:22:10;;;;;;;;;14.33;13.33;;;;;16.85;100.00;102144.72;5056665;28;45887;-72
2022/05/07 03:24:38;;;;;;;;;18.67;13.33;;;;;16.79;100.00;102138.47;5060027;28;45342;-71
2022/05/07 03:27:05;;;;;;;;;12.33;11.67;;;;;16.75;100.00;102138.44;5055418;28;47588;-71
2022/05/07 03:29:30;;;;;;;;;15.33;13.00;;;;;16.74;100.00;102130.41;5071583;28;45367;-73
2022/05/07 03:31:55;;;;;;;;;14.50;13.00;;;;;16.76;100.00;102133.97;5056792;28;45463;-72
2022/05/07 03:34:21;;;;;;;;;18.75;15.50;;;;;16.74;100.00;102133.09;5056427;28;51007;-72
2022/05/07 03:36:47;;;;;;;;;13.00;13.00;;;;;16.69;100.00;102121.47;5060132;28;46700;-71
2022/05/07 03:39:13;;;;;;;;;15.50;14.00;;;;;16.67;100.00;102126.78;5060340;28;45336;-72
2022/05/07 03:41:39;;;;;;;;;15.25;12.00;;;;;16.68;100.00;102128.56;5060179;28;45235;-71
2022/05/07 03:44:04;;;;;;;;;15.33;14.00;;;;;16.64;100.00;102128.53;5054494;28;45433;-71
2022/05/07 03:46:30;;;;;;;;;15.75;11.75;;;;;16.59;100.00;102119.63;5054752;28;46358;-71
2022/05/07 03:48:55;;;;;;;;;13.00;13.00;;;;;16.58;100.00;102124.06;5058528;28;45230;-71
2022/05/07 03:51:21;;;;;;;;;19.25;16.75;;;;;16.55;100.00;102116.03;5059659;28;45347;-71
2022/05/07 03:53:46;;;;;;;;;19.25;18.00;;;;;16.53;100.00;102116.91;5049856;28;45625;-71
2022/05/07 03:56:12;;;;;;;;;16.75;15.50;;;;;16.52;100.00;102120.47;5059794;28;45363;-71
2022/05/07 03:58:37;;;;;;;;;20.50;19.75;;;;;16.49;100.00;102118.66;5060035;28;45294;-72
2022/05/07 04:01:03;;;;;;;;;17.00;17.00;;;;;16.44;100.00;102120.38;5058701;28;45299;-70
2022/05/07 04:03:29;;;;;;;;;17.25;17.00;;;;;16.41;100.00;102115.94;5057131;28;45296;-71
2022/05/07 04:05:56;;;;;;;;;20.50;17.75;;;;;16.43;100.00;102113.28;5053025;28;45686;-72
2022/05/07 04:08:23;;;;;;;;;19.50;15.75;;;;;16.44;100.00;102125.72;5052187;28;45200;-71
2022/05/07 04:10:48;;;;;;;;;14.00;14.00;;;;;16.44;100.00;102126.59;5059680;28;45121;-71
2022/05/07 04:13:15;;;;;;;;;22.00;19.00;;;;;16.39;100.00;102115.03;5059861;28;45651;-71
2022/05/07 04:15:43;;;;;;;;;20.75;17.50;;;;;16.40;100.00;102121.25;5058829;28;46156;-71
2022/05/07 04:18:08;;;;;;;;;16.00;13.00;;;;;16.37;100.00;102124.78;5059282;28;45445;-72
2022/05/07 04:20:34;;;;;;;;;21.50;20.00;;;;;16.32;100.00;102125.63;5059562;28;45411;-71
2022/05/07 04:22:59;;;;;;;;;21.75;19.00;;;;;16.30;100.00;102130.97;5059406;28;45439;-71
2022/05/07 04:25:25;;;;;;;;;18.00;14.50;;;;;16.24;100.00;102117.56;5056953;28;47208;-72
2022/05/07 04:27:51;;;;;;;;;19.00;16.75;;;;;16.21;100.00;102122.88;5058661;28;45427;-71
2022/05/07 04:30:16;;;;;;;;;20.50;16.25;;;;;16.21;100.00;102131.78;5046766;28;45486;-71
2022/05/07 04:32:42;;;;;;;;;24.00;18.75;;;;;16.21;100.00;102131.78;5059243;28;45272;-71
2022/05/07 04:35:07;;;;;;;;;20.25;18.00;;;;;16.16;100.00;102119.28;5058407;28;45459;-72
2022/05/07 04:37:33;;;;;;;;;21.75;19.75;;;;;16.18;100.00;102121.06;5059264;28;45348;-71
2022/05/07 04:39:58;;;;;;;;;19.75;16.00;;;;;16.17;100.00;102121.94;5058622;28;54555;-71
2022/05/07 04:42:24;;;;;;;;;17.25;17.25;;;;;16.15;100.00;102126.38;5059192;28;50955;-72
2022/05/07 04:44:49;;;;;;;;;17.50;15.50;;;;;16.14;100.00;102124.59;5057285;28;46319;-71
2022/05/07 04:47:15;;;;;;;;;21.50;19.50;;;;;16.10;100.00;102117.47;5058193;28;45222;-71
2022/05/07 04:49:40;;;;;;;;;21.50;17.00;;;;;16.14;100.00;102132.59;5058516;28;56875;-71
2022/05/07 04:52:06;;;;;;;;;23.33;17.33;;;;;16.09;100.00;102121.00;5059394;28;45502;-71
2022/05/07 04:54:32;;;;;;;;;19.50;18.75;;;;;16.10;100.00;102120.13;5051262;28;47349;-72
2022/05/07 04:56:58;;;;;;;;;21.50;19.50;;;;;16.12;100.00;102112.13;5058393;28;45470;-71
2022/05/07 04:59:23;;;;;;;;;20.25;16.00;;;;;16.11;100.00;102115.69;5059192;28;45279;-71
2022/05/07 05:01:48;;;;;;;;;21.75;19.25;;;;;16.14;100.00;102119.28;5058377;28;56391;-71
2022/05/07 05:04:14;;;;;;;;;21.00;17.00;;;;;16.15;100.00;102115.72;5052693;28;57694;-71
2022/05/07 05:06:40;;;;;;;;;20.75;17.75;;;;;16.12;100.00;102105.03;5047705;28;46567;-71
2022/05/07 05:09:07;;;;;;;;;21.50;18.50;;;;;16.14;100.00;102113.94;5057628;28;45395;-70
2022/05/07 05:11:39;;;;;;;;;16.75;16.75;;;;;16.16;100.00;102124.63;5049118;28;45367;-72
2022/05/07 05:15:01;;;;;;;;;18.25;15.75;;;;;16.20;100.00;102127.31;5057645;28;45547;-71
2022/05/07 05:16:52;;;;;;;;;21.75;19.00;;;;;16.17;100.00;102116.63;5058513;28;45412;-71
2022/05/07 05:19:17;;;;;;;;;19.75;17.00;;;;;16.22;100.00;102114.88;5058431;28;45597;-71
2022/05/07 05:21:42;;;;;;;;;20.25;17.00;;;;;16.22;100.00;102112.22;5058903;28;45447;-72
2022/05/07 05:24:08;;;;;;;;;25.00;20.25;;;;;16.22;100.00;102104.22;5053738;28;62417;-71
2022/05/07 05:26:34;;;;;;;;;22.25;21.50;;;;;16.27;100.00;102116.72;5175484;22;45620;-71
2022/05/07 05:28:59;;;;;;;;;24.75;21.00;;;;;16.30;100.00;102111.38;5086971;27;45479;-71
2022/05/07 05:31:25;;;;;;;;;17.75;17.75;;;;;16.32;100.00;102112.31;5080194;27;45351;-71
2022/05/07 05:33:50;;;;;;;;;23.75;18.25;;;;;16.29;100.00;102112.28;5081632;27;45616;-72
2022/05/07 05:36:16;;;;;;;;;18.75;18.75;;;;;16.27;100.00;102119.38;5098240;27;62724;-72
2022/05/07 05:38:41;;;;;;;;;22.00;18.50;;;;;16.27;100.00;102119.38;5097255;27;56402;-71
2022/05/07 05:41:06;;;;;;;;;21.75;20.75;;;;;16.25;100.00;102116.72;5098862;27;51447;-71
2022/05/07 05:43:32;;;;;;;;;21.50;18.75;;;;;16.24;100.00;102114.91;5096141;27;45775;-71
2022/05/07 05:45:58;;;;;;;;;21.00;19.75;;;;;16.22;100.00;102120.22;5090986;27;45787;-71
2022/05/07 05:48:27;;;;;;;;;22.00;20.25;;;;;16.27;100.00;102132.69;5095500;27;45356;-73
2022/05/07 05:50:52;;;;;;;;;24.75;19.75;;;;;16.22;100.00;102130.00;5089298;27;45509;-70
2022/05/07 05:53:17;;;;;;;;;24.25;19.00;;;;;16.19;100.00;102120.22;5079576;27;46706;-74
2022/05/07 05:55:43;;;;;;;;;20.50;17.75;;;;;16.25;100.00;102130.03;5086150;27;45548;-71
2022/05/07 05:58:08;;;;;;;;;21.25;19.00;;;;;16.28;100.00;102132.72;5082792;27;54158;-71
2022/05/07 06:00:33;;;;;;;;;23.25;20.50;;;;;16.31;100.00;102119.41;5096525;27;45481;-71
2022/05/07 06:02:59;;;;;;;;;20.75;20.75;;;;;16.37;100.00;102123.91;5089384;27;52262;-69
2022/05/07 06:05:24;;;;;;;;;21.75;18.00;;;;;16.41;100.00;102115.06;5073948;27;45693;-71
2022/05/07 06:07:49;;;;;;;;;27.25;19.50;;;;;16.51;100.00;102122.22;5097312;27;45385;-71
2022/05/07 06:10:15;;;;;;;;;20.50;17.00;;;;;16.52;100.00;102112.47;5092041;27;51818;-70
2022/05/07 06:12:40;;;;;;;;;21.00;20.00;;;;;16.52;100.00;102118.69;5097492;27;45417;-70
2022/05/07 06:15:07;;;;;;;;;19.00;17.75;;;;;16.55;100.00;102131.13;5094378;27;59125;-71
2022/05/07 06:17:33;;;;;;;;;23.00;19.25;;;;;16.55;100.00;102134.69;5094777;27;45240;-70
2022/05/07 06:19:58;;;;;;;;;18.50;17.75;;;;;16.58;100.00;102134.72;5097548;27;52706;-70
2022/05/07 06:22:24;;;;;;;;;26.25;22.00;;;;;16.58;100.00;102142.72;5077905;27;46781;-70
2022/05/07 06:27:33;;;;;;;;;23.25;22.25;;;;;16.59;100.00;102152.50;5094017;27;46277;-70
2022/05/07 06:29:59;;;;;;;;;18.00;17.75;;;;;16.59;100.00;102164.94;5084168;27;45345;-73
2022/05/07 06:32:35;;;;;;;;;25.50;21.50;;;;;16.55;100.00;102163.13;5093987;27;46329;-69
2022/05/07 06:35:10;;;;;;;;;24.25;21.50;;;;;16.52;100.00;102161.34;5075089;27;45433;-70
2022/05/07 06:37:37;;;;;;;;;22.00;16.25;;;;;16.53;100.00;102167.56;5069664;27;45628;-70
2022/05/07 06:40:04;;;;;;;;;22.75;19.25;;;;;16.59;100.00;102168.50;5090827;27;45497;-72
2022/05/07 06:42:30;;;;;;;;;23.25;21.75;;;;;16.63;100.00;102178.31;5090319;27;46077;-71
2022/05/07 06:44:55;;;;;;;;;25.33;22.33;;;;;16.61;100.00;102172.06;5097148;27;45398;-71
2022/05/07 06:47:21;;;;;;;;;26.67;22.33;;;;;16.76;100.00;102182.88;5086704;27;45449;-71
2022/05/07 06:49:46;;;;;;;;;28.00;22.00;;;;;16.74;100.00;102178.44;5095399;27;47999;-72
2022/05/07 06:52:12;;;;;;;;;29.25;23.25;;;;;16.73;100.00;102185.53;5095474;27;54186;-72
2022/05/07 06:54:38;;;;;;;;;40.75;31.25;;;;;16.73;100.00;102172.22;5095344;27;45401;-70
2022/05/07 06:57:04;;;;;;;;;27.00;21.75;;;;;16.78;100.00;102180.25;5083167;27;45382;-71
2022/05/07 06:59:30;;;;;;;;;27.25;23.75;;;;;16.80;100.00;102169.56;5086446;27;45205;-70
2022/05/07 07:01:55;;;;;;;;;27.00;21.00;;;;;16.87;100.00;102171.38;5093824;27;46882;-70
2022/05/07 07:04:21;;;;;;;;;25.25;22.75;;;;;16.92;100.00;102161.66;5095442;27;45443;-71
2022/05/07 07:06:47;;;;;;;;;20.00;18.67;;;;;16.97;100.00;102162.56;5093037;27;45394;-70
2022/05/07 07:09:12;;;;;;;;;19.67;18.67;;;;;17.05;100.00;102168.84;5095425;27;50917;-68
2022/05/07 07:11:38;;;;;;;;;22.33;18.00;;;;;17.06;100.00;102159.97;5095775;27;61936;-70
2022/05/07 07:14:04;;;;;;;;;24.75;22.25;;;;;17.09;100.00;102165.28;5095736;27;54650;-70
2022/05/07 07:16:30;;;;;;;;;21.67;21.00;;;;;17.15;100.00;102169.78;5095446;27;45463;-69
2022/05/07 07:18:55;;;;;;;;;24.50;21.00;;;;;17.18;100.00;102165.34;5094829;27;46691;-69
2022/05/07 07:21:21;;;;;;;;;18.67;16.67;;;;;17.21;100.00;102170.72;5092710;27;62610;-70
2022/05/07 07:23:46;;;;;;;;;24.25;19.75;;;;;17.24;100.00;102168.03;5095919;27;58094;-70
2022/05/07 07:26:12;;;;;;;;;22.75;20.00;;;;;17.23;100.00;102158.25;5095933;27;45252;-70
2022/05/07 07:28:37;;;;;;;;;25.00;21.33;;;;;17.22;100.00;102151.16;5095652;27;45172;-69
2022/05/07 07:31:03;;;;;;;;;25.25;21.00;;;;;17.26;100.00;102157.41;5094458;27;60395;-69
2022/05/07 07:33:29;;;;;;;;;21.25;20.00;;;;;17.24;100.00;102148.47;5093815;27;45410;-70
2022/05/07 07:35:54;;;;;;;;;19.00;16.75;;;;;17.31;100.00;102160.97;5096401;27;45221;-69
2022/05/07 07:38:20;;;;;;;;;19.00;17.00;;;;;17.31;100.00;102158.31;5094658;27;55974;-70
2022/05/07 07:40:50;;;;;;;;;21.00;21.00;;;;;17.33;100.00;102167.22;5095093;27;60542;-68
2022/05/07 07:43:16;;;;;;;;;21.00;19.00;;;;;17.38;100.00;102157.44;5096383;27;45242;-68
2022/05/07 07:48:25;;;;;;;;;22.75;21.25;;;;;17.49;100.00;102165.50;5092709;27;45528;-70
2022/05/07 07:50:51;;;;;;;;;19.75;16.75;;;;;17.53;100.00;102164.63;5092257;27;45651;-69
2022/05/07 07:53:16;;;;;;;;;20.00;18.50;;;;;17.64;100.00;102172.69;5091897;27;45435;-69
2022/05/07 07:55:42;;;;;;;;;18.33;16.67;;;;;17.64;100.00;102154.88;5084505;27;45432;-69
2022/05/07 07:58:09;;;;;;;;;23.67;17.67;;;;;17.70;100.00;102157.56;5087289;27;45975;-70
2022/05/07 08:00:36;;;;;;;;;19.33;17.00;;;;;17.74;100.00;102159.38;5090620;27;46877;-69
2022/05/07 08:03:03;;;;;;;;;18.33;17.00;;;;;17.76;100.00;102149.59;5093748;27;45428;-69
2022/05/07 08:05:31;;;;;;;;;20.67;18.00;;;;;17.76;100.00;102146.91;5094801;27;45449;-70
2022/05/07 08:13:41;;;;;;;;;19.33;16.67;;;;;17.92;100.00;102141.59;5063101;27;45579;-69
2022/05/07 08:16:07;;;;;;;;;23.67;18.67;;;;;18.03;100.00;102153.19;5095830;27;45322;-69
2022/05/07 08:18:33;;;;;;;;;19.67;17.00;;;;;18.08;100.00;102154.09;5095884;27;45488;-70
2022/05/07 08:20:58;;;;;;;;;23.33;19.67;;;;;18.12;100.00;102153.22;5077822;27;47428;-70
2022/05/07 08:23:25;;;;;;;;;19.00;18.00;;;;;18.18;100.00;102146.97;5098620;27;45291;-69
2022/05/07 08:25:51;;;;;;;;;17.00;16.67;;;;;18.24;100.00;102149.66;5098344;27;45507;-69
2022/05/07 08:28:17;;;;;;;;;21.00;19.67;;;;;18.29;100.00;102143.41;5092672;27;45658;-70
2022/05/07 08:30:42;;;;;;;;;21.00;18.00;;;;;18.36;100.00;102149.66;5081542;27;47422;-70
2022/05/07 08:33:08;;;;;;;;;22.25;20.75;;;;;18.38;100.00;102147.88;5096642;27;55092;-72
2022/05/07 08:35:33;;;;;;;;;21.00;19.33;;;;;18.35;100.00;102157.69;5093405;27;45519;-71
2022/05/07 08:37:59;;;;;;;;;18.00;17.00;;;;;18.24;100.00;102149.66;5089960;27;45432;-70
2022/05/07 08:40:27;;;;;;;;;24.00;18.00;;;;;18.19;100.00;102162.13;5094760;27;47448;-72
2022/05/07 08:42:53;;;;;;;;;18.33;17.00;;;;;18.11;100.00;102151.44;5096437;27;45682;-71
2022/05/07 08:45:19;;;;;;;;;18.33;16.67;;;;;18.05;100.00;102140.72;5094875;27;45506;-71
2022/05/07 08:47:44;;;;;;;;;17.67;15.00;;;;;18.09;100.00;102157.66;5095622;27;53114;-71
2022/05/07 08:50:12;;;;;;;;;17.75;16.00;;;;;18.07;100.00;102149.66;5087742;27;45664;-72
2022/05/07 08:52:39;;;;;;;;;17.67;16.33;;;;;18.09;100.00;102147.84;5098502;27;45656;-71
2022/05/07 08:55:06;;;;;;;;;15.33;15.33;;;;;18.13;100.00;102155.00;5098153;27;45540;-69
2022/05/07 08:57:31;;;;;;;;;18.00;16.00;;;;;18.15;100.00;102161.22;5093074;27;45260;-72
2022/05/07 08:59:56;;;;;;;;;16.00;15.00;;;;;18.18;100.00;102163.03;5096207;27;46440;-71
2022/05/07 09:02:22;;;;;;;;;18.33;16.33;;;;;18.21;100.00;102161.22;5098482;27;45545;-71
2022/05/07 09:04:57;;;;;;;;;14.67;14.00;;;;;18.17;100.00;102148.75;5094856;27;53703;-73
2022/05/07 09:07:23;;;;;;;;;13.00;12.00;;;;;18.19;100.00;102149.66;5060440;27;45602;-70
2022/05/07 09:09:49;;;;;;;;;14.33;12.00;;;;;18.16;100.00;102154.09;5069243;27;46565;-70
2022/05/07 09:12:25;;;;;;;;;13.00;12.00;;;;;18.15;100.00;102139.84;5086910;27;45505;-71
2022/05/07 09:14:51;;;;;;;;;12.33;11.33;;;;;18.23;100.00;102153.22;5091608;27;45453;-71
2022/05/07 09:17:18;;;;;;;;;12.67;12.67;;;;;18.23;100.00;102142.53;5095247;27;45368;-71
2022/05/07 09:19:44;;;;;;;;;15.67;13.00;;;;;18.22;100.00;102138.06;5093617;27;47578;-71
2022/05/07 09:22:11;;;;;;;;;15.00;12.00;;;;;18.24;100.00;102133.63;5096636;27;55331;-71
2022/05/07 09:24:37;;;;;;;;;19.33;17.33;;;;;18.25;100.00;102141.63;5096216;27;45402;-71
2022/05/07 09:27:04;;;;;;;;;13.67;13.67;;;;;18.24;100.00;102126.47;5097548;27;45608;-71
2022/05/07 09:29:30;;;;;;;;;13.00;13.00;;;;;18.36;100.00;102133.59;5093748;27;45696;-71
2022/05/07 09:32:06;;;;;;;;;15.00;15.00;;;;;18.45;100.00;102140.75;5095632;27;47111;-71
2022/05/07 09:37:20;;;;;;;;;12.00;10.67;;;;;18.63;100.00;102129.13;5087425;27;45517;-71
2022/05/07 09:39:50;;;;;;;;;13.33;11.33;;;;;18.71;100.00;102119.34;5093326;27;62553;-71
2022/05/07 09:42:19;;;;;;;;;13.00;12.33;;;;;18.83;100.00;102130.00;5078780;27;45516;-70
2022/05/07 09:44:45;;;;;;;;;12.33;9.00;;;;;18.93;100.00;102123.75;5084836;27;45512;-70
2022/05/07 09:47:12;;;;;;;;;14.33;12.00;;;;;19.00;100.00;102114.78;5096386;27;45667;-71
2022/05/07 09:50:19;;;;;;;;;13.67;13.33;;;;;19.13;100.00;102112.09;5091310;27;46563;-72
2022/05/07 09:52:26;;;;;;;;;13.33;13.00;;;;;19.21;100.00;102121.84;5081977;27;46365;-69
2022/05/07 09:57:37;;;;;;;;;15.00;12.00;;;;;19.44;100.00;102119.09;5094475;27;45681;-70
2022/05/07 10:00:07;;;;;;;;;11.33;11.00;;;;;19.59;100.00;102118.13;5096002;27;47712;-71
2022/05/07 10:02:58;;;;;;;;;10.00;8.00;;;;;19.86;100.00;102109.00;5096059;27;45439;-70
2022/05/07 10:05:47;;;;;;;;;13.33;12.00;;;;;20.10;100.00;102108.84;5085509;27;45603;-72
2022/05/07 10:08:22;;;;;;;;;14.33;12.00;;;;;20.32;100.00;102105.97;5090973;27;45523;-70
2022/05/07 10:10:48;;;;;;;;;13.67;10.33;;;;;20.51;100.00;102094.22;5090656;27;45742;-71
2022/05/07 10:13:18;;;;;;;;;13.67;9.00;;;;;20.75;100.00;102102.91;5071724;27;45558;-69
2022/05/07 10:15:58;;;;;;;;;10.67;10.67;;;;;20.87;100.00;102105.44;5088960;27;45407;-70
2022/05/07 10:18:33;;;;;;;;;12.00;9.00;;;;;20.93;100.00;102108.97;5089845;27;45508;-70
2022/05/07 10:20:58;;;;;;;;;8.33;8.33;;;;;20.92;100.00;102096.41;5095976;27;45821;-70
2022/05/07 10:23:32;;;;;;;;;14.33;10.67;;;;;21.08;100.00;102098.94;5078413;27;45513;-70
2022/05/07 10:25:58;;;;;;;;;14.33;10.33;;;;;21.11;100.00;102102.47;5084486;27;45605;-69
2022/05/07 10:28:38;;;;;;;;;11.33;10.00;;;;;21.16;100.00;102103.31;5085320;27;46066;-69
2022/05/07 10:31:03;;;;;;;;;9.67;9.67;;;;;21.22;100.00;102105.03;5071102;27;46592;-72
2022/05/07 10:33:38;;;;;;;;;45.50;33.25;;;;;21.20;100.00;102106.84;5091474;27;46629;-69
2022/05/07 10:36:08;;;;;;;;;12.67;11.67;;;;;21.28;100.00;102110.31;5094790;27;46277;-70
2022/05/07 10:38:36;;;;;;;;;48.75;41.00;;;;;21.36;100.00;102104.84;5074101;27;45513;-71
2022/05/07 10:41:05;;;;;;;;;229.75;212.75;;;;;21.47;100.00;102104.75;5089000;27;45473;-72
2022/05/07 10:43:34;;;;;;;;;17.67;15.67;;;;;21.52;100.00;102102.84;5082885;27;45461;-70
2022/05/07 10:46:01;;;;;;;;;60.00;47.50;;;;;21.54;100.00;102095.69;5087627;27;45484;-70
2022/05/07 10:48:26;;;;;;;;;311.00;288.60;;;;;21.64;100.00;102098.22;5091466;27;45405;-71
2022/05/07 10:50:53;;;;;;;;;426.50;366.50;;;;;21.76;100.00;102102.50;5091868;27;46213;-71
2022/05/07 10:53:19;;;;;;;;;139.00;123.75;;;;;21.75;99.28;102098.03;5075690;27;45702;-70
2022/05/07 10:55:44;;;;;;;;;43.00;36.25;;;;;21.73;96.59;102105.22;5086979;27;45342;-71
2022/05/07 10:58:09;;;;;;;;;56.75;46.50;;;;;21.61;96.22;102090.16;5093150;27;53411;-71
2022/05/07 11:00:36;;;;;;;;;13.00;9.67;;;;;21.59;94.73;102099.19;5088028;27;50927;-72
2022/05/07 11:03:02;;;;;;;;;59.25;44.25;;;;;21.59;99.69;102096.50;5087376;27;45747;-72
2022/05/07 11:05:35;;;;;;;;;11.33;11.33;;;;;21.65;99.81;102091.91;5096492;27;45457;-72
2022/05/07 11:08:02;;;;;;;;;12.33;10.33;;;;;21.82;97.51;102094.34;5095413;27;45532;-73
2022/05/07 11:10:29;;;;;;;;;9.67;9.67;;;;;21.93;94.18;102089.69;5089386;27;45832;-75
2022/05/07 11:13:05;;;;;;;;;13.33;11.33;;;;;22.06;97.51;102086.81;5095656;27;45573;-71
2022/05/07 11:15:30;;;;;;;;;20.33;15.67;;;;;22.24;98.24;102089.22;5095192;27;45609;-73
2022/05/07 11:17:56;;;;;;;;;13.33;11.33;;;;;22.38;96.08;102086.28;5095965;27;45518;-72
2022/05/07 11:20:35;;;;;;;;;17.00;12.67;;;;;22.47;95.82;102081.59;5093313;27;45816;-72
2022/05/07 11:23:02;;;;;;;;;11.00;11.00;;;;;22.61;95.79;102067.88;5094615;27;45555;-74
2022/05/07 11:25:28;;;;;;;;;24.00;19.67;;;;;22.77;93.39;102079.25;5094135;27;45958;-72
2022/05/07 11:27:55;;;;;;;;;17.00;13.67;;;;;22.79;94.72;102074.69;5089080;27;45486;-71
2022/05/07 11:30:21;;;;;;;;;45.00;36.50;;;;;22.77;92.42;102068.47;5087948;27;46495;-73